sensor_id;sensor_type;location;lat;lon;timestamp;pressure;altitude;pressure_sealevel;temperature;humidity
47897;BME280;39629;51.400;5.494;2022-09-30T00:01:40;100645.53;;;3.04;100.00
47897;BME280;39629;51.400;5.494;2022-09-30T00:06:44;100651.72;;;3.08;100.00
47897;BME280;39629;51.400;5.494;2022-09-30T00:11:46;100649.28;;;3.14;100.00
47897;BME280;39629;51.400;5.494;2022-09-30T00:16:48;100666.53;;;3.12;100.00
47897;BME280;39629;51.400;5.494;2022-09-30T00:21:51;100672.22;;;3.32;100.00
47897;BME280;39629;51.400;5.494;2022-09-30T00:26:53;100669.53;;;3.29;100.00
47897;BME280;39629;51.400;5.494;2022-09-30T00:31:55;100666.69;;;3.18;100.00
47897;BME280;39629;51.400;5.494;2022-09-30T00:36:58;100664.81;;;2.77;100.00
47897;BME280;39629;51.400;5.494;2022-09-30T00:42:03;100666.63;;;2.48;100.00
47897;BME280;39629;51.400;5.494;2022-09-30T00:52:34;100666.69;;;2.83;100.00
47897;BME280;39629;51.400;5.494;2022-09-30T00:57:36;100660.44;;;3.10;100.00
47897;BME280;39629;51.400;5.494;2022-09-30T01:02:38;100670.63;;;3.02;100.00
47897;BME280;39629;51.400;5.494;2022-09-30T01:07:41;100678.56;;;3.08;100.00
47897;BME280;39629;51.400;5.494;2022-09-30T01:12:43;100669.78;;;3.01;100.00
47897;BME280;39629;51.400;5.494;2022-09-30T01:17:51;100675.41;;;2.85;100.00
47897;BME280;39629;51.400;5.494;2022-09-30T01:23:08;100668.69;;;2.93;100.00
47897;BME280;39629;51.400;5.494;2022-09-30T01:28:46;100677.56;;;3.01;100.00
47897;BME280;39629;51.400;5.494;2022-09-30T01:34:02;100677.44;;;2.63;100.00
47897;BME280;39629;51.400;5.494;2022-09-30T01:39:18;100676.31;;;2.53;100.00
47897;BME280;39629;51.400;5.494;2022-09-30T01:44:32;100674.78;;;2.30;100.00
47897;BME280;39629;51.400;5.494;2022-09-30T01:49:41;100672.50;;;2.41;100.00
47897;BME280;39629;51.400;5.494;2022-09-30T01:54:48;100673.50;;;2.46;100.00
47897;BME280;39629;51.400;5.494;2022-09-30T01:59:58;100672.47;;;2.39;100.00
47897;BME280;39629;51.400;5.494;2022-09-30T02:05:15;100669.19;;;2.46;100.00
47897;BME280;39629;51.400;5.494;2022-09-30T02:10:21;100670.34;;;2.58;100.00
47897;BME280;39629;51.400;5.494;2022-09-30T02:15:31;100679.59;;;2.46;100.00
47897;BME280;39629;51.400;5.494;2022-09-30T02:20:38;100684.19;;;2.26;100.00
47897;BME280;39629;51.400;5.494;2022-09-30T02:25:44;100674.28;;;2.42;100.00
47897;BME280;39629;51.400;5.494;2022-09-30T02:30:49;100684.75;;;2.45;100.00
47897;BME280;39629;51.400;5.494;2022-09-30T02:35:57;100681.31;;;2.46;100.00
47897;BME280;39629;51.400;5.494;2022-09-30T02:41:07;100691.41;;;2.35;100.00
47897;BME280;39629;51.400;5.494;2022-09-30T02:46:17;100692.22;;;2.34;100.00
47897;BME280;39629;51.400;5.494;2022-09-30T02:51:47;100689.59;;;2.32;100.00
47897;BME280;39629;51.400;5.494;2022-09-30T02:56:56;100690.59;;;1.78;100.00
47897;BME280;39629;51.400;5.494;2022-09-30T03:01:59;100693.81;;;1.69;100.00
47897;BME280;39629;51.400;5.494;2022-09-30T03:07:02;100687.22;;;1.81;100.00
47897;BME280;39629;51.400;5.494;2022-09-30T03:12:10;100689.63;;;1.75;100.00
47897;BME280;39629;51.400;5.494;2022-09-30T03:17:31;100702.28;;;1.37;100.00
47897;BME280;39629;51.400;5.494;2022-09-30T03:22:49;100700.03;;;1.76;100.00
47897;BME280;39629;51.400;5.494;2022-09-30T03:28:04;100699.09;;;1.73;100.00
47897;BME280;39629;51.400;5.494;2022-09-30T03:33:12;100700.44;;;1.60;100.00
47897;BME280;39629;51.400;5.494;2022-09-30T03:38:26;100717.28;;;1.74;100.00
47897;BME280;39629;51.400;5.494;2022-09-30T03:43:36;100715.38;;;1.14;100.00
47897;BME280;39629;51.400;5.494;2022-09-30T03:48:42;100717.88;;;1.12;100.00
47897;BME280;39629;51.400;5.494;2022-09-30T03:53:47;100718.97;;;1.45;100.00
47897;BME280;39629;51.400;5.494;2022-09-30T03:58:49;100721.97;;;1.31;100.00
47897;BME280;39629;51.400;5.494;2022-09-30T04:03:52;100724.50;;;1.56;100.00
47897;BME280;39629;51.400;5.494;2022-09-30T04:08:55;100733.69;;;1.73;100.00
47897;BME280;39629;51.400;5.494;2022-09-30T04:13:57;100738.69;;;1.67;100.00
47897;BME280;39629;51.400;5.494;2022-09-30T04:19:00;100746.69;;;1.75;100.00
47897;BME280;39629;51.400;5.494;2022-09-30T04:24:04;100761.44;;;1.76;100.00
47897;BME280;39629;51.400;5.494;2022-09-30T04:29:05;100758.88;;;1.77;100.00
47897;BME280;39629;51.400;5.494;2022-09-30T04:34:07;100764.25;;;1.82;100.00
47897;BME280;39629;51.400;5.494;2022-09-30T04:39:10;100781.56;;;1.83;100.00
47897;BME280;39629;51.400;5.494;2022-09-30T04:44:12;100780.72;;;1.84;100.00
47897;BME280;39629;51.400;5.494;2022-09-30T04:49:14;100784.34;;;1.89;100.00
47897;BME280;39629;51.400;5.494;2022-09-30T04:54:17;100784.31;;;1.88;100.00
47897;BME280;39629;51.400;5.494;2022-09-30T04:59:18;100793.69;;;1.84;100.00
47897;BME280;39629;51.400;5.494;2022-09-30T05:04:20;100796.03;;;1.49;100.00
47897;BME280;39629;51.400;5.494;2022-09-30T05:09:23;100806.78;;;1.60;100.00
47897;BME280;39629;51.400;5.494;2022-09-30T05:14:24;100798.59;;;1.75;100.00
47897;BME280;39629;51.400;5.494;2022-09-30T05:19:26;100815.41;;;1.34;100.00
47897;BME280;39629;51.400;5.494;2022-09-30T05:24:29;100810.66;;;1.21;100.00
47897;BME280;39629;51.400;5.494;2022-09-30T05:29:30;100814.50;;;1.32;100.00
47897;BME280;39629;51.400;5.494;2022-09-30T05:34:32;100819.38;;;1.49;100.00
47897;BME280;39629;51.400;5.494;2022-09-30T05:39:35;100815.44;;;1.60;100.00
47897;BME280;39629;51.400;5.494;2022-09-30T05:44:37;100818.75;;;1.56;100.00
47897;BME280;39629;51.400;5.494;2022-09-30T05:49:38;100828.59;;;1.66;100.00
47897;BME280;39629;51.400;5.494;2022-09-30T05:54:42;100837.38;;;1.70;100.00
47897;BME280;39629;51.400;5.494;2022-09-30T05:59:43;100848.16;;;1.82;100.00
47897;BME280;39629;51.400;5.494;2022-09-30T06:04:45;100848.94;;;2.07;100.00
47897;BME280;39629;51.400;5.494;2022-09-30T06:09:48;100859.13;;;2.28;100.00
47897;BME280;39629;51.400;5.494;2022-09-30T06:14:50;100865.16;;;2.56;100.00
47897;BME280;39629;51.400;5.494;2022-09-30T06:19:51;100870.16;;;2.79;100.00
47897;BME280;39629;51.400;5.494;2022-09-30T06:24:54;100884.66;;;3.01;100.00
47897;BME280;39629;51.400;5.494;2022-09-30T06:29:56;100873.81;;;3.16;100.00
47897;BME280;39629;51.400;5.494;2022-09-30T06:34:57;100887.56;;;3.44;100.00
47897;BME280;39629;51.400;5.494;2022-09-30T06:40:01;100890.00;;;3.69;100.00
47897;BME280;39629;51.400;5.494;2022-09-30T06:45:03;100891.06;;;3.78;100.00
47897;BME280;39629;51.400;5.494;2022-09-30T06:50:05;100875.16;;;4.02;100.00
47897;BME280;39629;51.400;5.494;2022-09-30T06:55:08;100880.91;;;4.23;100.00
47897;BME280;39629;51.400;5.494;2022-09-30T07:00:11;100882.19;;;4.42;100.00
47897;BME280;39629;51.400;5.494;2022-09-30T07:05:14;100889.06;;;4.79;100.00
47897;BME280;39629;51.400;5.494;2022-09-30T07:10:17;100891.22;;;4.98;100.00
47897;BME280;39629;51.400;5.494;2022-09-30T07:15:20;100896.66;;;5.09;100.00
47897;BME280;39629;51.400;5.494;2022-09-30T07:20:22;100890.81;;;5.21;100.00
47897;BME280;39629;51.400;5.494;2022-09-30T07:25:25;100882.72;;;5.53;100.00
47897;BME280;39629;51.400;5.494;2022-09-30T07:30:27;100871.91;;;5.82;100.00
47897;BME280;39629;51.400;5.494;2022-09-30T07:35:30;100884.25;;;5.90;100.00
47897;BME280;39629;51.400;5.494;2022-09-30T07:40:34;100882.13;;;6.20;100.00
47897;BME280;39629;51.400;5.494;2022-09-30T07:45:35;100884.53;;;6.64;100.00
47897;BME280;39629;51.400;5.494;2022-09-30T07:50:37;100886.63;;;6.90;100.00
47897;BME280;39629;51.400;5.494;2022-09-30T07:55:45;100888.72;;;7.20;100.00
47897;BME280;39629;51.400;5.494;2022-09-30T08:00:47;100887.97;;;7.29;100.00
47897;BME280;39629;51.400;5.494;2022-09-30T08:05:50;100889.19;;;7.63;100.00
47897;BME280;39629;51.400;5.494;2022-09-30T08:10:57;100878.22;;;8.05;100.00
47897;BME280;39629;51.400;5.494;2022-09-30T08:15:59;100878.41;;;8.29;100.00
47897;BME280;39629;51.400;5.494;2022-09-30T08:21:02;100896.94;;;8.56;100.00
47897;BME280;39629;51.400;5.494;2022-09-30T08:26:07;100894.59;;;8.97;100.00
47897;BME280;39629;51.400;5.494;2022-09-30T08:31:11;100899.78;;;8.93;100.00
47897;BME280;39629;51.400;5.494;2022-09-30T08:36:14;100892.09;;;9.39;100.00
47897;BME280;39629;51.400;5.494;2022-09-30T08:41:45;100887.81;;;9.75;100.00
47897;BME280;39629;51.400;5.494;2022-09-30T08:46:53;100888.69;;;10.36;100.00
47897;BME280;39629;51.400;5.494;2022-09-30T08:51:59;100885.97;;;10.73;100.00
47897;BME280;39629;51.400;5.494;2022-09-30T08:57:03;100882.16;;;11.51;100.00
47897;BME280;39629;51.400;5.494;2022-09-30T09:02:13;100885.41;;;11.90;100.00
47897;BME280;39629;51.400;5.494;2022-09-30T09:07:25;100892.81;;;12.52;100.00
47897;BME280;39629;51.400;5.494;2022-09-30T09:12:38;100888.97;;;12.83;100.00
47897;BME280;39629;51.400;5.494;2022-09-30T09:17:57;100877.28;;;13.04;100.00
47897;BME280;39629;51.400;5.494;2022-09-30T09:23:08;100856.38;;;13.52;98.10
47897;BME280;39629;51.400;5.494;2022-09-30T09:28:22;100878.47;;;14.06;94.79
47897;BME280;39629;51.400;5.494;2022-09-30T09:33:28;100860.81;;;14.08;91.91
47897;BME280;39629;51.400;5.494;2022-09-30T09:38:35;100869.94;;;14.85;87.87
47897;BME280;39629;51.400;5.494;2022-09-30T09:43:49;100879.06;;;14.72;84.99
47897;BME280;39629;51.400;5.494;2022-09-30T09:54:28;100872.97;;;15.12;79.49
47897;BME280;39629;51.400;5.494;2022-09-30T09:59:31;100874.53;;;15.22;78.32
47897;BME280;39629;51.400;5.494;2022-09-30T10:04:33;100864.47;;;15.38;73.49
47897;BME280;39629;51.400;5.494;2022-09-30T10:09:36;100860.53;;;15.55;74.51
47897;BME280;39629;51.400;5.494;2022-09-30T10:14:40;100850.38;;;15.74;73.44
47897;BME280;39629;51.400;5.494;2022-09-30T10:19:50;100846.25;;;15.62;70.71
47897;BME280;39629;51.400;5.494;2022-09-30T10:25:18;100863.28;;;16.24;65.48
47897;BME280;39629;51.400;5.494;2022-09-30T10:30:34;100864.50;;;16.46;66.26
47897;BME280;39629;51.400;5.494;2022-09-30T10:35:49;100870.72;;;16.77;64.57
47897;BME280;39629;51.400;5.494;2022-09-30T10:40:52;100861.84;;;17.09;63.07
47897;BME280;39629;51.400;5.494;2022-09-30T10:45:55;100867.41;;;17.31;62.83
47897;BME280;39629;51.400;5.494;2022-09-30T10:51:03;100860.78;;;17.45;63.27
47897;BME280;39629;51.400;5.494;2022-09-30T10:56:05;100868.53;;;16.25;63.00
47897;BME280;39629;51.400;5.494;2022-09-30T11:01:16;100877.66;;;16.84;60.22
47897;BME280;39629;51.400;5.494;2022-09-30T11:06:21;100876.47;;;17.24;59.07
47897;BME280;39629;51.400;5.494;2022-09-30T11:11:26;100855.91;;;17.29;57.80
47897;BME280;39629;51.400;5.494;2022-09-30T11:16:36;100863.97;;;16.98;60.54
47897;BME280;39629;51.400;5.494;2022-09-30T11:21:45;100863.84;;;16.38;60.72
47897;BME280;39629;51.400;5.494;2022-09-30T11:26:57;100849.13;;;17.77;60.29
47897;BME280;39629;51.400;5.494;2022-09-30T11:32:07;100860.50;;;16.63;58.73
47897;BME280;39629;51.400;5.494;2022-09-30T11:37:20;100848.34;;;16.19;62.64
47897;BME280;39629;51.400;5.494;2022-09-30T11:42:28;100845.41;;;17.54;60.84
47897;BME280;39629;51.400;5.494;2022-09-30T11:47:44;100846.22;;;18.37;59.46
47897;BME280;39629;51.400;5.494;2022-09-30T11:52:55;100842.78;;;17.53;55.13
47897;BME280;39629;51.400;5.494;2022-09-30T11:58:03;100830.78;;;17.95;56.81
47897;BME280;39629;51.400;5.494;2022-09-30T12:03:11;100837.88;;;17.11;59.20
47897;BME280;39629;51.400;5.494;2022-09-30T12:08:19;100828.69;;;18.04;56.50
47897;BME280;39629;51.400;5.494;2022-09-30T12:13:26;100815.72;;;18.20;59.88
47897;BME280;39629;51.400;5.494;2022-09-30T12:18:35;100819.84;;;18.56;53.68
47897;BME280;39629;51.400;5.494;2022-09-30T12:23:42;100811.53;;;18.38;54.43
47897;BME280;39629;51.400;5.494;2022-09-30T12:28:48;100799.91;;;18.16;54.39
47897;BME280;39629;51.400;5.494;2022-09-30T12:34:24;100793.09;;;18.07;56.22
47897;BME280;39629;51.400;5.494;2022-09-30T12:39:51;100787.41;;;18.18;56.23
47897;BME280;39629;51.400;5.494;2022-09-30T12:50:27;100783.59;;;18.50;49.65
47897;BME280;39629;51.400;5.494;2022-09-30T12:55:36;100772.00;;;18.99;50.05
47897;BME280;39629;51.400;5.494;2022-09-30T13:00:40;100773.69;;;19.01;49.49
47897;BME280;39629;51.400;5.494;2022-09-30T13:06:02;100786.91;;;18.32;49.65
47897;BME280;39629;51.400;5.494;2022-09-30T13:11:18;100780.03;;;18.75;49.29
47897;BME280;39629;51.400;5.494;2022-09-30T13:27:14;100763.59;;;18.38;53.70
47897;BME280;39629;51.400;5.494;2022-09-30T13:32:32;100771.69;;;18.35;51.19
47897;BME280;39629;51.400;5.494;2022-09-30T13:37:37;100756.50;;;18.37;52.08
47897;BME280;39629;51.400;5.494;2022-09-30T13:42:46;100740.41;;;18.40;50.59
47897;BME280;39629;51.400;5.494;2022-09-30T13:47:58;100738.66;;;18.16;53.79
47897;BME280;39629;51.400;5.494;2022-09-30T13:53:05;100744.84;;;17.91;53.60
47897;BME280;39629;51.400;5.494;2022-09-30T13:58:33;100745.41;;;18.01;53.98
47897;BME280;39629;51.400;5.494;2022-09-30T14:03:49;100728.41;;;18.29;52.47
47897;BME280;39629;51.400;5.494;2022-09-30T14:09:18;100718.16;;;17.67;51.39
47897;BME280;39629;51.400;5.494;2022-09-30T14:20:17;100717.13;;;17.45;52.37
47897;BME280;39629;51.400;5.494;2022-09-30T14:25:21;100709.16;;;17.45;53.49
47897;BME280;39629;51.400;5.494;2022-09-30T14:30:25;100706.84;;;17.34;53.37
47897;BME280;39629;51.400;5.494;2022-09-30T14:35:28;100708.06;;;17.50;53.69
47897;BME280;39629;51.400;5.494;2022-09-30T14:40:32;100703.16;;;17.38;53.09
47897;BME280;39629;51.400;5.494;2022-09-30T14:45:38;100708.56;;;17.35;51.84
47897;BME280;39629;51.400;5.494;2022-09-30T14:50:45;100699.59;;;17.11;54.44
47897;BME280;39629;51.400;5.494;2022-09-30T14:55:48;100699.94;;;17.00;53.80
47897;BME280;39629;51.400;5.494;2022-09-30T15:01:00;100691.28;;;16.93;54.16
47897;BME280;39629;51.400;5.494;2022-09-30T15:06:04;100688.38;;;16.73;54.51
47897;BME280;39629;51.400;5.494;2022-09-30T15:11:06;100680.84;;;16.59;54.67
47897;BME280;39629;51.400;5.494;2022-09-30T15:16:22;100682.63;;;16.58;55.99
47897;BME280;39629;51.400;5.494;2022-09-30T15:21:26;100681.72;;;16.59;53.96
47897;BME280;39629;51.400;5.494;2022-09-30T15:26:28;100688.16;;;16.50;53.79
47897;BME280;39629;51.400;5.494;2022-09-30T15:31:31;100689.69;;;16.59;53.63
47897;BME280;39629;51.400;5.494;2022-09-30T15:36:34;100692.06;;;16.39;54.01
47897;BME280;39629;51.400;5.494;2022-09-30T15:41:38;100700.53;;;16.20;55.20
47897;BME280;39629;51.400;5.494;2022-09-30T15:46:59;100696.06;;;15.89;55.63
47897;BME280;39629;51.400;5.494;2022-09-30T15:52:35;100697.38;;;15.74;57.20
47897;BME280;39629;51.400;5.494;2022-09-30T15:57:42;100700.38;;;15.60;56.82
47897;BME280;39629;51.400;5.494;2022-09-30T16:02:47;100715.00;;;15.42;58.87
47897;BME280;39629;51.400;5.494;2022-09-30T16:07:48;100709.81;;;15.36;58.19
47897;BME280;39629;51.400;5.494;2022-09-30T16:12:50;100715.41;;;15.24;59.10
47897;BME280;39629;51.400;5.494;2022-09-30T16:17:53;100696.91;;;15.22;58.10
47897;BME280;39629;51.400;5.494;2022-09-30T16:22:56;100707.97;;;15.02;59.65
47897;BME280;39629;51.400;5.494;2022-09-30T16:28:04;100704.78;;;14.86;61.76
47897;BME280;39629;51.400;5.494;2022-09-30T16:33:12;100690.25;;;14.65;61.98
47897;BME280;39629;51.400;5.494;2022-09-30T16:38:16;100691.25;;;14.59;62.88
47897;BME280;39629;51.400;5.494;2022-09-30T16:43:17;100690.75;;;14.42;62.39
47897;BME280;39629;51.400;5.494;2022-09-30T16:48:20;100693.94;;;14.16;63.12
47897;BME280;39629;51.400;5.494;2022-09-30T16:53:22;100690.56;;;14.07;63.53
47897;BME280;39629;51.400;5.494;2022-09-30T16:58:24;100693.56;;;13.89;65.80
47897;BME280;39629;51.400;5.494;2022-09-30T17:03:27;100693.25;;;13.56;68.81
47897;BME280;39629;51.400;5.494;2022-09-30T17:08:30;100687.31;;;13.43;69.48
47897;BME280;39629;51.400;5.494;2022-09-30T17:13:31;100678.75;;;13.27;70.56
47897;BME280;39629;51.400;5.494;2022-09-30T17:18:34;100680.97;;;12.99;74.20
47897;BME280;39629;51.400;5.494;2022-09-30T17:23:36;100673.16;;;12.92;73.61
47897;BME280;39629;51.400;5.494;2022-09-30T17:28:38;100675.81;;;12.89;73.10
47897;BME280;39629;51.400;5.494;2022-09-30T17:33:41;100688.63;;;12.56;76.93
47897;BME280;39629;51.400;5.494;2022-09-30T17:38:43;100683.53;;;12.38;78.91
47897;BME280;39629;51.400;5.494;2022-09-30T17:43:44;100695.06;;;12.31;77.82
47897;BME280;39629;51.400;5.494;2022-09-30T17:48:48;100682.88;;;12.22;78.40
47897;BME280;39629;51.400;5.494;2022-09-30T17:53:50;100678.59;;;12.10;79.79
47897;BME280;39629;51.400;5.494;2022-09-30T17:58:51;100679.63;;;12.00;81.23
47897;BME280;39629;51.400;5.494;2022-09-30T18:03:57;100686.84;;;11.81;81.57
47897;BME280;39629;51.400;5.494;2022-09-30T18:08:59;100687.75;;;11.78;81.69
47897;BME280;39629;51.400;5.494;2022-09-30T18:14:01;100696.69;;;11.65;83.63
47897;BME280;39629;51.400;5.494;2022-09-30T18:19:05;100701.97;;;11.65;83.07
47897;BME280;39629;51.400;5.494;2022-09-30T18:24:06;100709.97;;;11.49;85.18
47897;BME280;39629;51.400;5.494;2022-09-30T18:29:08;100691.56;;;11.46;84.82
47897;BME280;39629;51.400;5.494;2022-09-30T18:34:11;100684.59;;;11.39;85.42
47897;BME280;39629;51.400;5.494;2022-09-30T18:39:14;100675.97;;;11.21;87.79
47897;BME280;39629;51.400;5.494;2022-09-30T18:44:15;100676.94;;;11.11;88.55
47897;BME280;39629;51.400;5.494;2022-09-30T18:49:18;100669.91;;;11.10;87.99
47897;BME280;39629;51.400;5.494;2022-09-30T18:54:20;100667.22;;;11.19;85.80
47897;BME280;39629;51.400;5.494;2022-09-30T18:59:23;100661.97;;;11.13;86.05
47897;BME280;39629;51.400;5.494;2022-09-30T19:04:26;100653.16;;;11.20;84.56
47897;BME280;39629;51.400;5.494;2022-09-30T19:09:28;100652.19;;;11.31;83.42
47897;BME280;39629;51.400;5.494;2022-09-30T19:14:30;100639.88;;;11.30;84.35
47897;BME280;39629;51.400;5.494;2022-09-30T19:19:34;100631.06;;;11.35;84.41
47897;BME280;39629;51.400;5.494;2022-09-30T19:24:40;100614.28;;;11.46;83.34
47897;BME280;39629;51.400;5.494;2022-09-30T19:29:43;100609.75;;;11.58;81.71
47897;BME280;39629;51.400;5.494;2022-09-30T19:34:46;100606.19;;;11.64;81.72
47897;BME280;39629;51.400;5.494;2022-09-30T19:39:47;100606.28;;;11.56;83.42
47897;BME280;39629;51.400;5.494;2022-09-30T19:44:49;100604.25;;;11.80;81.64
47897;BME280;39629;51.400;5.494;2022-09-30T19:49:52;100609.56;;;11.74;82.08
47897;BME280;39629;51.400;5.494;2022-09-30T19:54:54;100608.56;;;11.87;80.90
47897;BME280;39629;51.400;5.494;2022-09-30T19:59:56;100590.06;;;11.89;80.89
47897;BME280;39629;51.400;5.494;2022-09-30T20:04:59;100569.78;;;11.96;79.87
47897;BME280;39629;51.400;5.494;2022-09-30T20:10:03;100552.97;;;12.03;78.41
47897;BME280;39629;51.400;5.494;2022-09-30T20:15:07;100541.75;;;11.88;80.23
47897;BME280;39629;51.400;5.494;2022-09-30T20:20:29;100528.44;;;11.96;79.90
47897;BME280;39629;51.400;5.494;2022-09-30T20:25:37;100524.19;;;11.87;81.08
47897;BME280;39629;51.400;5.494;2022-09-30T20:30:40;100524.88;;;12.00;79.58
47897;BME280;39629;51.400;5.494;2022-09-30T20:35:46;100515.28;;;11.95;79.78
47897;BME280;39629;51.400;5.494;2022-09-30T20:40:52;100505.44;;;12.06;77.06
47897;BME280;39629;51.400;5.494;2022-09-30T20:45:55;100499.13;;;12.19;77.05
47897;BME280;39629;51.400;5.494;2022-09-30T20:51:03;100489.44;;;12.18;76.12
47897;BME280;39629;51.400;5.494;2022-09-30T20:56:05;100476.06;;;12.31;75.44
47897;BME280;39629;51.400;5.494;2022-09-30T21:01:09;100484.75;;;12.39;74.84
47897;BME280;39629;51.400;5.494;2022-09-30T21:06:12;100471.47;;;12.42;73.92
47897;BME280;39629;51.400;5.494;2022-09-30T21:11:14;100471.34;;;12.53;73.43
47897;BME280;39629;51.400;5.494;2022-09-30T21:16:17;100466.91;;;12.56;73.55
47897;BME280;39629;51.400;5.494;2022-09-30T21:21:22;100458.94;;;12.58;72.67
47897;BME280;39629;51.400;5.494;2022-09-30T21:26:24;100452.91;;;12.51;74.40
47897;BME280;39629;51.400;5.494;2022-09-30T21:31:26;100460.91;;;12.47;74.33
47897;BME280;39629;51.400;5.494;2022-09-30T21:36:29;100447.56;;;12.54;73.23
47897;BME280;39629;51.400;5.494;2022-09-30T21:41:32;100444.03;;;12.55;73.85
47897;BME280;39629;51.400;5.494;2022-09-30T21:46:34;100444.03;;;12.55;73.91
47897;BME280;39629;51.400;5.494;2022-09-30T21:51:37;100438.50;;;12.69;72.48
47897;BME280;39629;51.400;5.494;2022-09-30T21:56:39;100443.81;;;12.68;72.43
47897;BME280;39629;51.400;5.494;2022-09-30T22:01:41;100434.25;;;12.62;73.22
47897;BME280;39629;51.400;5.494;2022-09-30T22:06:44;100443.09;;;12.59;73.93
47897;BME280;39629;51.400;5.494;2022-09-30T22:11:46;100441.47;;;12.51;76.71
47897;BME280;39629;51.400;5.494;2022-09-30T22:16:49;100448.63;;;12.44;78.59
47897;BME280;39629;51.400;5.494;2022-09-30T22:21:55;100450.00;;;12.12;87.37
47897;BME280;39629;51.400;5.494;2022-09-30T22:26:57;100439.63;;;12.00;91.43
47897;BME280;39629;51.400;5.494;2022-09-30T22:31:59;100430.41;;;11.68;100.00
47897;BME280;39629;51.400;5.494;2022-09-30T22:37:02;100433.34;;;11.46;100.00
47897;BME280;39629;51.400;5.494;2022-09-30T22:42:22;100423.84;;;11.34;100.00
47897;BME280;39629;51.400;5.494;2022-09-30T22:47:23;100415.19;;;11.24;100.00
47897;BME280;39629;51.400;5.494;2022-09-30T22:52:26;100406.56;;;11.10;100.00
47897;BME280;39629;51.400;5.494;2022-09-30T22:57:29;100395.22;;;11.05;100.00
47897;BME280;39629;51.400;5.494;2022-09-30T23:02:31;100389.25;;;10.90;100.00
47897;BME280;39629;51.400;5.494;2022-09-30T23:07:34;100383.16;;;10.82;100.00
47897;BME280;39629;51.400;5.494;2022-09-30T23:12:35;100356.91;;;10.76;100.00
47897;BME280;39629;51.400;5.494;2022-09-30T23:17:37;100339.47;;;10.66;100.00
47897;BME280;39629;51.400;5.494;2022-09-30T23:22:40;100317.59;;;10.59;100.00
47897;BME280;39629;51.400;5.494;2022-09-30T23:27:46;100286.06;;;10.57;100.00
47897;BME280;39629;51.400;5.494;2022-09-30T23:32:47;100287.91;;;10.51;100.00
47897;BME280;39629;51.400;5.494;2022-09-30T23:37:50;100258.16;;;10.46;100.00
47897;BME280;39629;51.400;5.494;2022-09-30T23:42:52;100219.59;;;10.43;100.00
47897;BME280;39629;51.400;5.494;2022-09-30T23:47:54;100188.97;;;10.39;100.00
47897;BME280;39629;51.400;5.494;2022-09-30T23:52:59;100155.63;;;10.39;100.00
47897;BME280;39629;51.400;5.494;2022-09-30T23:58:01;100149.50;;;10.39;100.00
